Time;durP1;ratioP1;P1;durP2;ratioP2;P2;SDS_P1;SDS_P2;PMS_P1;PMS_P2;Temp;Humidity;BMP_temperature;BMP_pressure;BME280_temperature;BME280_humidity;BME280_pressure;Samples;Min_cycle;Max_cycle;Signal;HPM_P1;HPM_P2
2022/09/14 00:01:29;;;;;;;10.60;2.70;;;15.10;87.30;;;;;;4971409;28;20070;-48
2022/09/14 00:03:59;;;;;;;6.20;1.85;;;15.10;87.20;;;;;;4971145;28;20049;-49
2022/09/14 00:06:26;;;;;;;7.45;1.67;;;15.10;87.00;;;;;;4971347;28;20029;-48
2022/09/14 00:08:55;;;;;;;4.40;1.58;;;15.10;86.90;;;;;;4979376;28;20085;-49
2022/09/14 00:11:23;;;;;;;5.50;1.58;;;15.00;86.90;;;;;;4971083;28;20027;-46
2022/09/14 00:13:49;;;;;;;8.13;2.00;;;15.00;86.80;;;;;;4972755;28;20032;-46
2022/09/14 00:16:18;;;;;;;4.50;1.30;;;15.00;86.80;;;;;;4970652;28;20094;-45
2022/09/14 00:18:44;;;;;;;6.40;1.40;;;15.00;86.70;;;;;;4970542;28;20035;-48
2022/09/14 00:21:11;;;;;;;11.15;1.67;;;14.90;86.70;;;;;;4984814;28;20022;-47
2022/09/14 00:23:39;;;;;;;5.05;1.35;;;14.90;86.70;;;;;;4989975;28;20352;-48
2022/09/14 00:26:11;;;;;;;4.30;1.55;;;14.90;86.70;;;;;;4989348;28;20054;-50
2022/09/14 00:28:39;;;;;;;8.77;1.95;;;14.80;86.80;;;;;;4987412;28;20030;-45
2022/09/14 00:31:06;;;;;;;5.38;1.27;;;14.70;86.80;;;;;;4971046;28;20116;-46
2022/09/14 00:33:33;;;;;;;5.93;1.70;;;14.70;86.90;;;;;;4970772;28;20034;-46
2022/09/14 00:36:22;;;;;;;5.30;1.45;;;14.60;86.80;;;;;;4969611;28;20430;-47
2022/09/14 00:38:48;;;;;;;6.85;2.15;;;14.50;86.90;;;;;;4976337;28;20084;-47
2022/09/14 00:41:17;;;;;;;7.00;2.10;;;14.40;87.30;;;;;;5005175;28;20030;-49
2022/09/14 00:44:01;;;;;;;6.57;1.90;;;14.40;87.40;;;;;;4987807;28;20387;-46
2022/09/14 00:46:30;;;;;;;7.40;1.70;;;14.30;87.50;;;;;;4969129;28;20479;-49
2022/09/14 00:48:59;;;;;;;7.25;1.90;;;14.20;87.80;;;;;;4971019;28;20027;-47
2022/09/14 00:51:26;;;;;;;4.93;1.90;;;14.20;87.90;;;;;;4980630;28;20089;-46
2022/09/14 00:53:52;;;;;;;5.00;1.60;;;14.10;87.70;;;;;;4989265;28;20026;-52
2022/09/14 00:56:18;;;;;;;4.53;1.85;;;14.10;87.90;;;;;;5005269;28;20035;-47
2022/09/14 00:58:49;;;;;;;4.55;1.75;;;14.00;88.10;;;;;;4989411;28;20042;-48
2022/09/14 01:01:15;;;;;;;5.75;1.75;;;14.00;88.20;;;;;;4985719;28;20463;-48
2022/09/14 01:03:40;;;;;;;9.30;2.33;;;14.00;88.30;;;;;;4969996;28;20026;-47
2022/09/14 01:06:16;;;;;;;8.10;1.90;;;13.90;88.40;;;;;;4970709;28;20827;-52
2022/09/14 01:09:06;;;;;;;9.00;2.53;;;13.90;88.50;;;;;;4971875;28;20038;-47
2022/09/14 01:11:56;;;;;;;4.55;1.55;;;13.90;88.50;;;;;;4990131;28;20525;-45
2022/09/14 01:14:42;;;;;;;4.88;1.95;;;13.80;88.40;;;;;;5003508;28;20065;-47
2022/09/14 01:17:27;;;;;;;4.57;1.75;;;13.80;88.50;;;;;;4989650;28;20038;-46
2022/09/14 01:20:07;;;;;;;5.75;1.65;;;13.70;88.60;;;;;;4989325;28;20022;-45
2022/09/14 01:23:08;;;;;;;7.10;3.38;;;13.70;88.70;;;;;;5004219;28;20348;-50
2022/09/14 01:25:56;;;;;;;6.28;1.60;;;13.60;88.80;;;;;;5005133;28;20030;-46
2022/09/14 01:28:41;;;;;;;6.63;2.15;;;13.50;88.60;;;;;;4990103;28;20030;-46
2022/09/14 01:31:14;;;;;;;8.85;4.00;;;13.50;88.70;;;;;;4973532;28;20027;-46
2022/09/14 01:33:53;;;;;;;11.00;2.53;;;13.50;88.90;;;;;;4970465;28;20027;-46
2022/09/14 01:36:21;;;;;;;8.63;2.10;;;13.50;89.00;;;;;;4969253;28;20440;-49
2022/09/14 01:38:50;;;;;;;7.55;2.00;;;13.50;89.00;;;;;;4972461;28;20093;-46
2022/09/14 01:41:21;;;;;;;8.45;2.17;;;13.40;88.90;;;;;;4973078;28;20027;-46
2022/09/14 01:44:03;;;;;;;6.13;1.90;;;13.40;89.00;;;;;;4989239;28;20073;-47
2022/09/14 01:46:42;;;;;;;9.35;2.33;;;13.50;89.10;;;;;;5006218;28;20513;-45
2022/09/14 01:49:26;;;;;;;6.70;2.40;;;13.50;89.10;;;;;;4993358;28;20022;-45
2022/09/14 01:51:58;;;;;;;7.78;2.83;;;13.50;89.20;;;;;;4992286;28;20458;-46
2022/09/14 01:54:24;;;;;;;8.85;2.22;;;13.60;89.30;;;;;;4993261;28;20034;-45
2022/09/14 01:56:58;;;;;;;8.65;1.92;;;13.60;89.40;;;;;;4992654;28;20128;-45
2022/09/14 01:59:29;;;;;;;10.27;2.55;;;13.60;89.50;;;;;;4992508;28;20030;-47
2022/09/14 02:02:01;;;;;;;12.55;2.60;;;13.70;89.50;;;;;;4974755;28;20027;-46
2022/09/14 02:04:42;;;;;;;13.70;3.33;;;13.70;89.40;;;;;;4973623;28;20034;-48
2022/09/14 02:07:09;;;;;;;6.43;2.10;;;13.80;89.40;;;;;;4972403;28;20031;-47
2022/09/14 02:09:35;;;;;;;7.20;2.17;;;13.80;89.40;;;;;;4973540;28;20082;-47
2022/09/14 02:12:01;;;;;;;6.05;2.03;;;13.80;89.40;;;;;;5008021;28;20030;-45
2022/09/14 02:14:27;;;;;;;9.32;2.83;;;13.90;89.20;;;;;;4993030;28;20058;-47
2022/09/14 02:16:52;;;;;;;7.05;2.33;;;13.90;89.30;;;;;;4976909;28;20074;-45
2022/09/14 02:19:19;;;;;;;7.15;1.92;;;13.90;89.20;;;;;;4973128;28;20034;-46
2022/09/14 02:21:44;;;;;;;9.38;2.08;;;13.90;89.20;;;;;;4972971;28;20038;-46
2022/09/14 02:24:14;;;;;;;6.53;2.20;;;13.90;89.20;;;;;;4973360;28;20155;-49
2022/09/14 02:26:41;;;;;;;8.93;2.33;;;13.90;89.20;;;;;;4973455;28;20022;-46
2022/09/14 02:29:07;;;;;;;8.65;2.53;;;13.90;89.20;;;;;;4972682;28;20042;-48
2022/09/14 02:32:05;;;;;;;6.28;2.13;;;13.90;89.30;;;;;;4976207;28;20027;-45
2022/09/14 02:34:42;;;;;;;7.35;1.95;;;14.00;89.30;;;;;;4972427;28;20043;-47
2022/09/14 02:37:26;;;;;;;9.10;1.92;;;14.00;89.40;;;;;;4972802;28;20364;-46
2022/09/14 02:39:58;;;;;;;5.13;1.58;;;14.10;89.40;;;;;;4972901;28;20028;-48
2022/09/14 02:42:48;;;;;;;7.25;1.92;;;14.10;89.30;;;;;;5003358;28;20038;-47
2022/09/14 02:45:42;;;;;;;9.43;2.80;;;14.10;89.10;;;;;;5004193;28;20053;-49
2022/09/14 02:48:31;;;;;;;8.65;2.63;;;14.10;89.10;;;;;;4972632;28;20030;-46
2022/09/14 02:51:03;;;;;;;8.07;2.22;;;14.10;89.10;;;;;;4971950;28;20026;-45
2022/09/14 02:53:47;;;;;;;9.93;2.75;;;14.10;89.20;;;;;;4982381;28;20129;-45
2022/09/14 02:56:14;;;;;;;8.43;2.20;;;14.10;89.00;;;;;;5007223;28;20097;-48
2022/09/14 02:58:44;;;;;;;9.18;3.50;;;14.10;89.10;;;;;;4991957;28;20030;-49
2022/09/14 03:01:16;;;;;;;7.70;1.98;;;14.10;89.10;;;;;;5003959;28;20019;-46
2022/09/14 03:03:41;;;;;;;7.15;2.40;;;14.10;89.10;;;;;;4972384;28;20034;-44
2022/09/14 03:06:07;;;;;;;7.05;1.98;;;14.10;89.20;;;;;;4972612;28;20042;-49
2022/09/14 03:08:33;;;;;;;5.90;2.05;;;14.10;89.10;;;;;;4972036;28;20120;-47
2022/09/14 03:10:59;;;;;;;9.02;1.85;;;14.20;89.20;;;;;;4975789;28;20027;-44
2022/09/14 03:13:24;;;;;;;18.02;3.25;;;14.10;89.20;;;;;;4991563;28;20037;-45
2022/09/14 03:15:50;;;;;;;9.35;2.25;;;14.10;89.10;;;;;;4990783;28;20443;-48
2022/09/14 03:18:16;;;;;;;5.32;2.00;;;14.20;89.30;;;;;;4973662;28;20057;-52
2022/09/14 03:20:42;;;;;;;6.35;2.10;;;14.10;89.10;;;;;;4972151;28;20515;-48
2022/09/14 03:23:12;;;;;;;7.97;1.90;;;14.10;89.10;;;;;;4976448;28;20042;-45
2022/09/14 03:25:40;;;;;;;5.85;1.60;;;14.10;89.20;;;;;;4990482;28;20030;-45
2022/09/14 03:28:06;;;;;;;5.05;1.40;;;14.10;89.20;;;;;;4991608;28;20037;-45
2022/09/14 03:30:33;;;;;;;7.82;1.90;;;14.10;89.20;;;;;;4990417;28;20250;-47
2022/09/14 03:32:58;;;;;;;10.00;2.38;;;14.10;89.40;;;;;;5005748;28;20041;-45
2022/09/14 03:35:24;;;;;;;7.40;2.30;;;14.10;89.40;;;;;;4972856;28;20352;-45
2022/09/14 03:37:50;;;;;;;11.20;2.35;;;14.20;89.40;;;;;;4972089;28;20031;-47
2022/09/14 03:40:18;;;;;;;9.48;2.10;;;14.20;89.30;;;;;;4971328;28;20169;-45
2022/09/14 03:42:46;;;;;;;9.80;2.60;;;14.20;89.30;;;;;;4985016;28;20041;-45
2022/09/14 03:45:13;;;;;;;6.07;2.47;;;14.30;89.30;;;;;;4990443;28;20282;-45
2022/09/14 03:47:40;;;;;;;7.28;2.47;;;14.20;89.30;;;;;;4979871;28;20042;-47
2022/09/14 03:50:07;;;;;;;9.85;2.25;;;14.20;89.30;;;;;;4971536;28;20030;-45
2022/09/14 03:52:34;;;;;;;8.82;3.03;;;14.20;89.30;;;;;;4971472;28;20035;-45
2022/09/14 03:55:00;;;;;;;8.32;2.53;;;14.20;89.30;;;;;;4985696;28;20030;-46
2022/09/14 03:57:28;;;;;;;7.95;2.60;;;14.20;89.20;;;;;;4989864;28;20096;-45
2022/09/14 03:59:53;;;;;;;10.43;3.20;;;14.20;89.20;;;;;;4990635;28;20064;-46
2022/09/14 04:02:21;;;;;;;7.68;2.20;;;14.10;89.10;;;;;;4985275;28;20054;-47
2022/09/14 04:04:47;;;;;;;11.13;2.55;;;14.00;89.30;;;;;;4971143;28;20098;-45
2022/09/14 04:07:14;;;;;;;7.53;2.05;;;14.10;89.40;;;;;;4971061;28;20110;-44
2022/09/14 04:09:41;;;;;;;9.48;2.35;;;14.00;89.70;;;;;;4970894;28;20022;-45
2022/09/14 04:12:07;;;;;;;8.35;2.33;;;14.00;89.70;;;;;;4975380;28;20416;-45
2022/09/14 04:14:32;;;;;;;4.60;1.98;;;14.00;89.70;;;;;;4989591;28;20388;-47
2022/09/14 04:16:58;;;;;;;8.48;2.58;;;14.00;89.70;;;;;;4989432;28;20038;-48
2022/09/14 04:19:24;;;;;;;8.52;2.30;;;14.10;89.70;;;;;;4971286;28;20452;-45
2022/09/14 04:21:49;;;;;;;8.05;2.17;;;14.00;89.60;;;;;;4970136;28;20459;-46
2022/09/14 04:24:15;;;;;;;11.02;3.25;;;14.00;89.50;;;;;;4976452;28;20101;-45
2022/09/14 04:26:41;;;;;;;6.68;1.65;;;13.90;89.40;;;;;;4990506;28;20455;-44
2022/09/14 04:29:09;;;;;;;8.00;2.45;;;13.90;89.20;;;;;;5005853;28;20391;-46
2022/09/14 04:31:35;;;;;;;8.32;2.45;;;13.90;89.30;;;;;;4989179;28;20026;-45
2022/09/14 04:34:00;;;;;;;9.05;2.40;;;13.80;89.30;;;;;;4976176;28;20030;-45
2022/09/14 04:36:29;;;;;;;4.97;2.03;;;13.70;89.30;;;;;;4970903;28;20070;-46
2022/09/14 04:38:57;;;;;;;9.23;2.30;;;13.70;89.40;;;;;;4970943;28;20445;-48
2022/09/14 04:41:23;;;;;;;8.70;2.67;;;13.70;89.60;;;;;;4969743;28;20066;-47
2022/09/14 04:43:50;;;;;;;8.27;2.50;;;13.60;89.70;;;;;;4971206;28;20027;-49
2022/09/14 04:46:20;;;;;;;8.57;2.55;;;13.60;89.70;;;;;;4970983;28;20078;-47
2022/09/14 04:48:46;;;;;;;;;;;13.70;89.70;;;;;;4974071;28;20518;-45
2022/09/14 04:51:20;;;;;;;9.50;2.30;;;13.60;89.70;;;;;;4969706;28;19953;-48
2022/09/14 04:53:50;;;;;;;10.88;2.83;;;13.60;89.70;;;;;;4970748;28;20498;-45
2022/09/14 04:56:17;;;;;;;7.18;2.05;;;13.70;89.70;;;;;;4978413;28;20042;-47
2022/09/14 04:58:54;;;;;;;5.03;2.05;;;13.70;89.70;;;;;;4970787;28;20039;-45
2022/09/14 05:01:23;;;;;;;8.80;2.17;;;13.70;89.70;;;;;;4970605;28;20026;-47
2022/09/14 05:03:49;;;;;;;9.55;3.15;;;13.70;89.80;;;;;;4972599;28;20420;-45
2022/09/14 05:06:18;;;;;;;9.50;3.20;;;13.70;89.80;;;;;;4970463;28;20089;-46
2022/09/14 05:08:45;;;;;;;9.38;2.20;;;13.60;89.80;;;;;;4970825;28;20051;-45
2022/09/14 05:11:13;;;;;;;8.65;2.13;;;13.60;89.70;;;;;;4970561;28;20399;-44
2022/09/14 05:13:39;;;;;;;7.28;2.63;;;13.70;89.60;;;;;;4981645;28;20328;-47
2022/09/14 05:16:27;;;;;;;6.35;2.20;;;13.70;89.60;;;;;;4993739;28;20034;-44
2022/09/14 05:18:55;;;;;;;9.13;2.03;;;13.70;89.50;;;;;;5007999;28;20049;-49
2022/09/14 05:21:22;;;;;;;9.32;2.72;;;13.70;89.40;;;;;;5008589;28;20368;-49
2022/09/14 05:23:56;;;;;;;6.15;2.30;;;13.70;89.50;;;;;;4993609;28;20054;-48
2022/09/14 05:26:23;;;;;;;3.65;1.88;;;13.70;89.50;;;;;;4992570;28;20085;-50
2022/09/14 05:28:51;;;;;;;4.07;1.73;;;13.70;89.40;;;;;;4993607;28;20462;-45
2022/09/14 05:31:17;;;;;;;6.18;2.10;;;13.70;89.40;;;;;;4993144;28;20061;-49
2022/09/14 05:33:46;;;;;;;9.35;2.88;;;13.80;89.20;;;;;;4988484;28;20110;-47
2022/09/14 05:36:11;;;;;;;6.80;2.42;;;13.70;89.10;;;;;;4973702;28;20049;-46
2022/09/14 05:38:40;;;;;;;7.65;2.30;;;13.70;89.10;;;;;;4973853;28;20027;-47
2022/09/14 05:41:09;;;;;;;9.82;2.40;;;13.70;89.20;;;;;;4973846;28;20125;-45
2022/09/14 05:43:35;;;;;;;7.25;2.17;;;13.70;89.20;;;;;;4977394;28;20117;-46
2022/09/14 05:46:02;;;;;;;10.90;2.40;;;13.80;89.20;;;;;;4973522;28;20078;-45
2022/09/14 05:48:31;;;;;;;7.82;2.50;;;13.80;89.20;;;;;;4975622;28;20031;-45
2022/09/14 05:51:01;;;;;;;11.50;2.70;;;13.90;89.30;;;;;;4993186;28;20030;-45
2022/09/14 05:53:28;;;;;;;8.30;2.45;;;13.90;89.40;;;;;;4993159;28;20030;-45
2022/09/14 05:56:04;;;;;;;6.85;2.42;;;13.90;89.30;;;;;;4993052;28;20023;-46
2022/09/14 05:58:30;;;;;;;9.05;2.78;;;14.00;89.30;;;;;;4992792;28;20049;-45
2022/09/14 06:00:56;;;;;;;4.85;2.17;;;14.00;89.20;;;;;;4991002;28;20371;-45
2022/09/14 06:03:22;;;;;;;5.60;2.45;;;14.10;89.20;;;;;;5007861;28;20026;-46
2022/09/14 06:05:48;;;;;;;4.57;1.88;;;14.10;89.20;;;;;;4991071;28;20041;-46
2022/09/14 06:08:14;;;;;;;5.85;2.55;;;14.10;89.20;;;;;;4973254;28;20027;-49
2022/09/14 06:10:39;;;;;;;8.50;2.33;;;14.20;89.10;;;;;;4973563;28;20093;-46
2022/09/14 06:13:05;;;;;;;8.93;2.50;;;14.20;89.20;;;;;;4973601;28;20035;-45
2022/09/14 06:15:35;;;;;;;5.57;3.00;;;14.30;89.00;;;;;;4988621;28;20056;-47
2022/09/14 06:18:00;;;;;;;6.10;2.08;;;14.30;88.80;;;;;;4972132;28;20031;-45
2022/09/14 06:20:26;;;;;;;8.35;2.28;;;14.30;88.80;;;;;;4975373;28;20032;-45
2022/09/14 06:22:51;;;;;;;9.82;2.35;;;14.30;88.80;;;;;;4972106;28;20043;-46
2022/09/14 06:25:17;;;;;;;7.22;2.08;;;14.30;88.80;;;;;;4972559;28;20130;-45
2022/09/14 06:27:42;;;;;;;8.45;2.40;;;14.30;88.80;;;;;;4972637;28;20035;-46
2022/09/14 06:30:09;;;;;;;5.65;2.20;;;14.30;88.50;;;;;;4980257;28;20084;-48
2022/09/14 06:32:34;;;;;;;8.43;3.28;;;14.30;88.70;;;;;;4990786;28;20332;-45
2022/09/14 06:35:00;;;;;;;8.20;3.05;;;14.40;88.60;;;;;;4990094;28;20459;-45
2022/09/14 06:37:25;;;;;;;6.07;2.65;;;14.50;88.80;;;;;;4991709;28;20182;-45
2022/09/14 06:39:53;;;;;;;4.28;1.98;;;14.50;88.70;;;;;;4990969;28;20425;-46
2022/09/14 06:42:19;;;;;;;7.72;2.55;;;14.60;88.50;;;;;;4991366;28;20023;-46
2022/09/14 06:44:46;;;;;;;10.45;2.83;;;14.60;88.50;;;;;;4990758;28;20375;-47
2022/09/14 06:47:11;;;;;;;6.35;2.33;;;14.70;88.40;;;;;;5007192;28;20510;-45
2022/09/14 06:49:37;;;;;;;9.32;2.05;;;14.70;88.30;;;;;;4978554;28;20074;-46
2022/09/14 06:52:02;;;;;;;5.90;2.75;;;14.80;88.20;;;;;;4971561;28;20662;-46
2022/09/14 06:54:28;;;;;;;8.98;2.00;;;14.80;88.10;;;;;;4989800;28;20074;-45
2022/09/14 06:56:54;;;;;;;4.50;1.63;;;14.80;88.00;;;;;;4991534;28;20324;-46
2022/09/14 06:59:19;;;;;;;8.55;2.58;;;14.80;88.10;;;;;;4991412;28;20042;-47
2022/09/14 07:01:46;;;;;;;7.32;2.60;;;14.80;88.50;;;;;;4995546;28;20050;-46
2022/09/14 07:04:13;;;;;;;9.80;1.90;;;14.90;88.40;;;;;;4976103;28;20045;-48
2022/09/14 07:06:43;;;;;;;9.60;1.88;;;14.90;88.60;;;;;;4972137;28;20113;-48
2022/09/14 07:09:10;;;;;;;6.50;1.80;;;15.00;88.50;;;;;;4971932;28;20034;-46
2022/09/14 07:11:37;;;;;;;11.63;2.33;;;15.20;88.50;;;;;;4982649;28;20356;-47
2022/09/14 07:14:06;;;;;;;8.35;2.47;;;15.40;88.30;;;;;;4990802;28;20368;-46
2022/09/14 07:16:33;;;;;;;3.63;1.42;;;15.60;88.10;;;;;;4991325;28;20030;-46
2022/09/14 07:19:03;;;;;;;8.05;1.88;;;15.70;87.80;;;;;;4979344;28;20023;-47
2022/09/14 07:21:29;;;;;;;;;;;15.90;87.30;;;;;;4971680;28;20035;-46
2022/09/14 07:23:56;;;;;;;5.25;1.42;;;15.90;86.60;;;;;;4971103;28;19925;-46
2022/09/14 07:26:32;;;;;;;4.88;1.77;;;16.00;86.90;;;;;;4971204;28;20126;-45
2022/09/14 07:29:04;;;;;;;8.55;2.08;;;16.10;86.40;;;;;;4984769;28;20034;-46
2022/09/14 07:31:32;;;;;;;7.75;2.20;;;16.10;85.60;;;;;;4991668;28;20025;-47
2022/09/14 07:34:00;;;;;;;12.90;3.17;;;16.00;85.20;;;;;;4977482;28;20026;-46
2022/09/14 07:36:26;;;;;;;6.20;1.80;;;16.20;85.70;;;;;;4970990;28;20388;-46
2022/09/14 07:38:53;;;;;;;8.45;2.58;;;16.20;85.50;;;;;;4982503;28;20121;-45
2022/09/14 07:41:20;;;;;;;7.50;2.50;;;16.30;85.60;;;;;;4991058;28;20037;-45
2022/09/14 07:43:58;;;;;;;11.15;2.67;;;16.30;85.00;;;;;;4991109;28;20030;-49
2022/09/14 07:46:25;;;;;;;19.50;3.55;;;16.40;84.70;;;;;;4990792;28;20494;-48
2022/09/14 07:48:57;;;;;;;16.50;3.28;;;16.50;84.30;;;;;;4979504;28;20042;-45
2022/09/14 07:51:24;;;;;;;16.15;3.17;;;16.70;83.60;;;;;;4991025;28;20403;-45
2022/09/14 07:53:52;;;;;;;9.27;2.50;;;17.00;83.20;;;;;;4991020;28;20052;-46
2022/09/14 07:56:19;;;;;;;71.05;11.18;;;17.30;81.60;;;;;;5006055;28;20585;-46
2022/09/14 07:58:51;;;;;;;17.60;2.70;;;17.50;81.40;;;;;;4989115;28;20095;-47
2022/09/14 08:01:17;;;;;;;8.90;1.60;;;17.50;79.10;;;;;;4990922;28;20033;-45
2022/09/14 08:03:43;;;;;;;4.97;1.30;;;17.40;78.70;;;;;;4984737;28;20364;-46
2022/09/14 08:06:17;;;;;;;5.40;1.30;;;17.30;79.10;;;;;;4972775;28;20038;-47
2022/09/14 08:08:44;;;;;;;5.55;1.60;;;17.30;79.40;;;;;;4986738;28;20455;-47
2022/09/14 08:11:21;;;;;;;7.55;2.58;;;17.40;79.60;;;;;;4970157;28;20031;-46
2022/09/14 08:13:59;;;;;;;7.80;1.52;;;17.50;79.20;;;;;;4971447;28;20032;-47
2022/09/14 08:16:26;;;;;;;6.20;1.92;;;17.60;79.30;;;;;;4970747;28;20031;-46
2022/09/14 08:18:54;;;;;;;6.10;1.90;;;17.70;78.90;;;;;;4973487;28;20035;-49
2022/09/14 08:21:20;;;;;;;7.55;1.13;;;17.50;78.90;;;;;;4971180;28;20065;-45
2022/09/14 08:23:45;;;;;;;8.70;2.38;;;17.50;78.80;;;;;;4971144;28;20054;-45
2022/09/14 08:26:16;;;;;;;11.00;2.00;;;17.50;79.20;;;;;;4980258;28;20045;-45
2022/09/14 08:28:46;;;;;;;13.07;2.10;;;17.40;78.40;;;;;;5005727;28;20411;-46
2022/09/14 08:31:13;;;;;;;5.90;1.52;;;17.40;78.80;;;;;;4989403;28;20030;-46
2022/09/14 08:33:42;;;;;;;7.55;1.85;;;17.60;78.90;;;;;;4986443;28;20039;-45
2022/09/14 08:36:09;;;;;;;9.52;1.52;;;17.90;78.40;;;;;;4978176;28;20440;-47
2022/09/14 08:38:35;;;;;;;5.82;1.35;;;18.20;78.00;;;;;;4990159;28;20391;-46
2022/09/14 08:41:16;;;;;;;5.93;1.38;;;18.40;77.40;;;;;;4990157;28;20022;-46
2022/09/14 08:43:41;;;;;;;11.73;2.35;;;18.60;76.30;;;;;;4983790;28;20467;-46
2022/09/14 08:46:38;;;;;;;10.07;3.55;;;18.90;77.40;;;;;;4970401;28;20046;-46
2022/09/14 08:49:21;;;;;;;21.85;4.70;;;19.00;75.00;;;;;;4976383;28;20037;-46
2022/09/14 08:51:47;;;;;;;10.77;1.52;;;19.30;72.90;;;;;;4987115;28;20404;-48
2022/09/14 08:54:13;;;;;;;8.75;1.42;;;19.40;72.30;;;;;;4993419;28;20034;-46
2022/09/14 08:56:44;;;;;;;9.68;2.28;;;19.00;71.50;;;;;;4994029;28;20033;-46
2022/09/14 08:59:42;;;;;;;8.48;1.95;;;18.70;72.30;;;;;;4993804;28;20041;-45
2022/09/14 09:02:38;;;;;;;9.20;1.92;;;18.20;71.40;;;;;;4992246;28;20113;-47
2022/09/14 09:05:19;;;;;;;6.75;1.42;;;17.90;69.80;;;;;;4992853;28;20037;-47
2022/09/14 09:08:12;;;;;;;5.80;1.45;;;17.90;70.50;;;;;;4994080;28;20493;-46
2022/09/14 09:10:39;;;;;;;10.27;2.40;;;18.00;72.00;;;;;;4992941;28;20043;-46
2022/09/14 09:13:09;;;;;;;7.68;2.05;;;18.50;69.40;;;;;;4993743;28;20029;-45
2022/09/14 09:15:46;;;;;;;13.88;2.20;;;18.90;69.00;;;;;;4993834;28;20081;-45
2022/09/14 09:18:35;;;;;;;7.70;1.98;;;19.00;66.40;;;;;;4993695;28;20033;-46
2022/09/14 09:21:12;;;;;;;6.45;1.60;;;18.90;67.70;;;;;;4976543;28;20031;-45
2022/09/14 09:23:39;;;;;;;7.95;1.80;;;18.60;67.30;;;;;;4973302;28;20030;-47
2022/09/14 09:26:17;;;;;;;9.45;1.70;;;18.40;68.30;;;;;;4973186;28;20049;-46
2022/09/14 09:28:55;;;;;;;9.23;2.15;;;18.30;67.30;;;;;;4973902;28;20527;-46
2022/09/14 09:31:49;;;;;;;9.15;1.80;;;18.10;68.00;;;;;;4993481;28;20034;-45
2022/09/14 09:34:25;;;;;;;8.27;1.85;;;17.90;67.90;;;;;;4992130;28;20130;-46
2022/09/14 09:36:50;;;;;;;12.40;2.50;;;17.90;68.30;;;;;;4973796;28;20031;-46
2022/09/14 09:39:16;;;;;;;9.80;2.20;;;17.90;68.20;;;;;;4977875;28;20027;-45
2022/09/14 09:42:00;;;;;;;7.72;2.08;;;17.90;67.80;;;;;;4993961;28;20018;-46
2022/09/14 09:44:25;;;;;;;9.57;2.17;;;17.90;68.20;;;;;;4993449;28;20382;-46
2022/09/14 09:46:58;;;;;;;10.35;2.42;;;17.90;67.80;;;;;;4993082;28;20113;-46
2022/09/14 09:49:29;;;;;;;13.88;2.40;;;18.00;68.50;;;;;;4990458;28;20022;-48
2022/09/14 09:51:55;;;;;;;7.22;2.10;;;18.10;67.70;;;;;;4973921;28;20019;-45
2022/09/14 09:54:29;;;;;;;6.80;1.70;;;18.20;66.70;;;;;;4973197;28;20019;-45
2022/09/14 09:57:05;;;;;;;8.85;1.92;;;18.20;67.60;;;;;;4956362;28;20089;-45
2022/09/14 09:59:35;;;;;;;12.25;2.50;;;18.30;67.60;;;;;;4977615;28;20072;-49
2022/09/14 10:02:19;;;;;;;13.13;2.15;;;18.40;67.10;;;;;;5008223;28;20030;-48
2022/09/14 10:05:00;;;;;;;8.65;1.90;;;18.60;65.90;;;;;;4988831;28;20066;-45
2022/09/14 10:07:27;;;;;;;8.43;2.15;;;18.60;65.50;;;;;;4972553;28;20026;-47
2022/09/14 10:10:09;;;;;;;5.28;1.65;;;18.70;64.80;;;;;;4972817;28;20082;-45
2022/09/14 10:12:37;;;;;;;10.18;2.08;;;18.60;64.90;;;;;;4973423;28;20022;-45
2022/09/14 10:15:26;;;;;;;9.60;1.52;;;18.50;64.10;;;;;;4973215;28;20026;-45
2022/09/14 10:17:54;;;;;;;12.23;2.13;;;18.40;65.80;;;;;;4988320;28;20062;-46
2022/09/14 10:20:23;;;;;;;6.63;1.23;;;18.50;65.70;;;;;;4998867;28;20030;-45
2022/09/14 10:22:49;;;;;;;9.85;1.73;;;18.90;65.20;;;;;;4993018;28;20113;-46
2022/09/14 10:25:18;;;;;;;6.05;1.70;;;18.80;64.40;;;;;;4992779;28;20444;-46
2022/09/14 10:27:58;;;;;;;6.72;1.58;;;18.70;63.70;;;;;;4992257;28;20077;-47
2022/09/14 10:30:36;;;;;;;9.75;1.92;;;18.80;64.20;;;;;;4991167;28;20041;-45
2022/09/14 10:33:05;;;;;;;5.80;1.90;;;18.70;64.10;;;;;;4992285;28;20038;-46
2022/09/14 10:35:46;;;;;;;6.97;2.33;;;18.60;63.90;;;;;;4983108;28;20456;-47
2022/09/14 10:38:27;;;;;;;8.18;1.70;;;18.70;64.90;;;;;;4979034;28;20525;-46
2022/09/14 10:41:10;;;;;;;5.47;1.27;;;18.90;63.90;;;;;;4979950;28;20042;-46
2022/09/14 10:43:59;;;;;;;7.15;1.75;;;18.90;62.70;;;;;;4972000;28;20468;-46
2022/09/14 10:46:52;;;;;;;5.00;1.70;;;18.90;62.20;;;;;;4972736;28;20065;-46
2022/09/14 10:49:17;;;;;;;5.15;1.52;;;18.90;62.40;;;;;;4987609;28;20049;-46
2022/09/14 10:51:55;;;;;;;4.13;1.48;;;18.90;61.70;;;;;;4992065;28;20039;-45
2022/09/14 10:54:29;;;;;;;10.13;1.45;;;18.90;63.40;;;;;;4972239;28;20034;-46
2022/09/14 10:57:22;;;;;;;5.45;1.15;;;19.00;63.00;;;;;;4972212;28;20143;-46
2022/09/14 10:59:50;;;;;;;8.93;2.00;;;18.90;62.40;;;;;;4990106;28;20041;-46
2022/09/14 11:02:23;;;;;;;6.93;1.45;;;18.70;62.30;;;;;;5007017;28;20121;-50
2022/09/14 11:05:27;;;;;;;5.60;1.75;;;18.40;63.20;;;;;;4990977;28;20049;-47
2022/09/14 11:07:59;;;;;;;5.95;1.60;;;18.30;63.50;;;;;;4960906;28;20043;-46
2022/09/14 11:10:54;;;;;;;5.15;1.33;;;18.30;63.70;;;;;;4971588;28;20447;-48
2022/09/14 11:13:31;;;;;;;3.75;1.17;;;18.40;63.50;;;;;;4962511;28;20093;-48
2022/09/14 11:16:22;;;;;;;7.55;1.15;;;18.40;64.60;;;;;;4975381;28;20467;-49
2022/09/14 11:19:28;;;;;;;5.60;1.20;;;18.40;64.30;;;;;;4991583;28;20157;-46
2022/09/14 11:21:56;;;;;;;5.35;1.55;;;18.50;63.90;;;;;;4977407;28;20102;-47
2022/09/14 11:24:37;;;;;;;5.35;1.38;;;18.90;62.50;;;;;;4972143;28;20139;-46
2022/09/14 11:27:05;;;;;;;4.68;1.08;;;19.40;63.80;;;;;;4972034;28;20027;-48
2022/09/14 11:29:36;;;;;;;5.38;1.23;;;20.00;61.10;;;;;;4988456;28;20054;-46
2022/09/14 11:32:16;;;;;;;4.97;1.02;;;19.90;60.20;;;;;;4991355;28;20026;-46
2022/09/14 11:34:48;;;;;;;2.80;1.23;;;19.70;60.10;;;;;;4991719;28;20511;-47
2022/09/14 11:37:17;;;;;;;6.72;1.55;;;19.80;60.00;;;;;;4976040;28;20106;-48
2022/09/14 11:39:48;;;;;;;7.45;1.40;;;19.70;60.20;;;;;;4971572;28;20350;-46
2022/09/14 11:42:30;;;;;;;6.82;1.88;;;19.70;59.60;;;;;;4987055;28;20057;-46
2022/09/14 11:45:06;;;;;;;6.75;1.30;;;19.80;61.20;;;;;;4985179;28;20061;-49
2022/09/14 11:47:41;;;;;;;6.75;1.58;;;19.90;62.00;;;;;;4971667;28;20038;-49
2022/09/14 11:50:16;;;;;;;3.05;1.00;;;20.10;60.60;;;;;;4971587;28;20030;-46
2022/09/14 11:52:42;;;;;;;5.82;1.35;;;20.20;61.00;;;;;;4973895;28;20085;-48
2022/09/14 11:55:15;;;;;;;6.93;1.33;;;20.30;58.50;;;;;;4971463;28;20039;-47
2022/09/14 11:57:44;;;;;;;4.38;0.95;;;20.20;59.90;;;;;;4971708;28;20088;-46
2022/09/14 12:00:22;;;;;;;5.97;1.17;;;19.90;60.90;;;;;;4971456;28;20082;-47
2022/09/14 12:03:00;;;;;;;6.57;1.40;;;19.70;61.10;;;;;;4971664;28;20060;-48
2022/09/14 12:05:28;;;;;;;4.78;1.23;;;19.60;61.70;;;;;;4971009;28;20058;-50
2022/09/14 12:08:23;;;;;;;6.70;1.27;;;19.40;63.20;;;;;;4973624;28;20026;-49
2022/09/14 12:11:08;;;;;;;7.03;1.80;;;19.30;64.20;;;;;;4970355;28;20042;-46
2022/09/14 12:13:35;;;;;;;5.97;1.13;;;19.00;64.30;;;;;;4977656;28;20348;-47
2022/09/14 12:16:04;;;;;;;7.35;1.88;;;18.90;65.00;;;;;;4989736;28;20061;-48
2022/09/14 12:18:30;;;;;;;5.45;1.60;;;18.90;64.90;;;;;;5005464;28;20026;-46
2022/09/14 12:21:00;;;;;;;6.05;1.42;;;18.90;64.60;;;;;;4988127;28;20048;-46
2022/09/14 12:23:38;;;;;;;4.18;1.63;;;18.90;66.50;;;;;;4971093;28;20045;-47
2022/09/14 12:26:10;;;;;;;5.63;1.95;;;18.80;64.70;;;;;;4970729;28;20034;-46
2022/09/14 12:28:38;;;;;;;8.77;1.40;;;18.70;64.90;;;;;;4970555;28;20116;-46
2022/09/14 12:31:06;;;;;;;4.75;1.35;;;18.50;64.80;;;;;;4970403;28;20113;-51
2022/09/14 12:33:32;;;;;;;7.57;1.52;;;18.40;66.30;;;;;;5004692;28;20100;-46
2022/09/14 12:35:57;;;;;;;6.40;1.20;;;18.40;65.90;;;;;;4990678;28;20031;-45
2022/09/14 12:38:29;;;;;;;6.97;1.27;;;18.40;66.70;;;;;;4970871;28;20092;-49
2022/09/14 12:41:22;;;;;;;6.57;1.15;;;18.40;66.50;;;;;;4970783;28;20041;-48
2022/09/14 12:43:48;;;;;;;5.10;1.30;;;18.50;66.20;;;;;;4971939;28;20022;-48
2022/09/14 12:46:19;;;;;;;4.47;1.40;;;18.60;66.20;;;;;;4990063;28;20109;-49
2022/09/14 12:48:48;;;;;;;5.10;1.02;;;18.70;65.50;;;;;;4990078;28;20033;-48
2022/09/14 12:51:31;;;;;;;6.60;1.70;;;18.90;66.50;;;;;;4988325;28;20038;-50
2022/09/14 12:53:57;;;;;;;6.00;1.13;;;19.20;63.60;;;;;;4970197;28;20027;-48
2022/09/14 12:56:31;;;;;;;6.72;1.30;;;19.40;63.90;;;;;;4970231;28;20114;-47
2022/09/14 12:59:17;;;;;;;4.18;1.23;;;19.50;64.70;;;;;;4970204;28;20023;-46
2022/09/14 13:02:09;;;;;;;4.68;0.90;;;19.60;64.20;;;;;;4973797;28;20110;-48
2022/09/14 13:04:38;;;;;;;3.05;0.95;;;19.40;63.40;;;;;;4989998;28;20027;-46
2022/09/14 13:07:14;;;;;;;5.65;1.48;;;19.40;64.90;;;;;;4981455;28;20033;-48
2022/09/14 13:09:52;;;;;;;7.45;1.83;;;19.40;64.80;;;;;;4970428;28;20364;-46